createdAt,value
2023-03-27T00:01:36.485Z,9.70
2023-03-27T00:04:38.534Z,9.70
2023-03-27T00:07:40.912Z,9.70
2023-03-27T00:10:42.919Z,9.60
2023-03-27T00:13:50.389Z,9.60
2023-03-27T00:16:53.197Z,9.60
2023-03-27T00:19:55.180Z,9.60
2023-03-27T00:22:57.294Z,9.50
2023-03-27T00:25:59.661Z,9.50
2023-03-27T00:29:01.697Z,9.50
2023-03-27T00:32:04.369Z,9.60
2023-03-27T00:35:06.937Z,9.50
2023-03-27T00:38:08.874Z,9.60
2023-03-27T00:41:10.929Z,9.50
2023-03-27T00:44:42.344Z,9.60
2023-03-27T00:47:46.095Z,9.60
2023-03-27T00:50:49.804Z,9.50
2023-03-27T00:53:52.882Z,9.40
2023-03-27T00:56:58.364Z,9.40
2023-03-27T01:00:02.025Z,9.30
2023-03-27T01:03:08.223Z,9.40
2023-03-27T01:06:13.143Z,9.10
2023-03-27T01:09:20.825Z,9.20
2023-03-27T01:12:44.567Z,9.20
2023-03-27T01:16:22.920Z,9.00
2023-03-27T01:20:03.056Z,9.10
2023-03-27T01:23:59.796Z,9.00
2023-03-27T01:27:03.743Z,9.10
2023-03-27T01:30:14.035Z,8.90
2023-03-27T01:33:35.096Z,8.90
2023-03-27T01:36:58.674Z,9.00
2023-03-27T01:40:18.665Z,8.90
2023-03-27T01:43:36.429Z,8.80
2023-03-27T01:46:47.340Z,8.80
2023-03-27T01:49:55.962Z,8.70
2023-03-27T01:53:17.824Z,8.70
2023-03-27T01:56:51.888Z,8.70
2023-03-27T02:00:18.690Z,8.50
2023-03-27T02:03:27.718Z,8.60
2023-03-27T02:06:42.989Z,8.60
2023-03-27T02:09:50.467Z,8.70
2023-03-27T02:13:04.374Z,8.70
2023-03-27T02:16:14.785Z,8.70
2023-03-27T02:19:34.884Z,8.50
2023-03-27T02:22:41.399Z,8.40
2023-03-27T02:25:45.667Z,8.40
2023-03-27T02:29:21.564Z,8.50
2023-03-27T02:32:46.448Z,8.40
2023-03-27T02:36:05.227Z,8.50
2023-03-27T02:39:12.823Z,8.30
2023-03-27T02:42:14.821Z,8.30
2023-03-27T02:45:48.621Z,8.30
2023-03-27T02:48:55.239Z,8.20
2023-03-27T02:52:09.986Z,8.20
2023-03-27T02:55:20.978Z,8.10
2023-03-27T02:58:30.991Z,8.00
2023-03-27T03:01:40.561Z,7.90
2023-03-27T03:05:02.165Z,7.90
2023-03-27T03:08:10.441Z,7.90
2023-03-27T03:11:14.023Z,7.80
2023-03-27T03:14:23.225Z,7.70
2023-03-27T03:17:28.366Z,7.50
2023-03-27T03:20:30.379Z,7.50
2023-03-27T03:23:32.451Z,7.60
2023-03-27T03:26:36.798Z,7.60
2023-03-27T03:29:39.907Z,7.40
2023-03-27T03:32:48.717Z,7.10
2023-03-27T03:35:51.239Z,6.90
2023-03-27T03:39:04.546Z,7.10
2023-03-27T03:42:07.431Z,7.20
2023-03-27T03:45:09.982Z,6.90
2023-03-27T03:48:12.297Z,6.80
2023-03-27T03:51:14.253Z,6.70
2023-03-27T03:54:16.208Z,6.80
2023-03-27T03:57:19.215Z,6.60
2023-03-27T04:00:36.379Z,6.60
2023-03-27T04:03:38.519Z,6.60
2023-03-27T04:06:41.059Z,6.50
2023-03-27T04:09:43.309Z,6.40
2023-03-27T04:13:00.120Z,6.40
2023-03-27T04:16:05.362Z,6.50
2023-03-27T04:19:14.124Z,6.50
2023-03-27T04:22:17.824Z,6.60
2023-03-27T04:25:22.101Z,6.40
2023-03-27T04:28:24.202Z,6.50
2023-03-27T04:31:39.258Z,6.30
2023-03-27T04:35:13.475Z,6.40
2023-03-27T04:38:28.175Z,6.40
2023-03-27T04:41:33.569Z,6.50
2023-03-27T04:44:36.350Z,6.40
2023-03-27T04:47:39.216Z,6.50
2023-03-27T04:50:42.658Z,6.40
2023-03-27T04:53:47.352Z,6.40
2023-03-27T04:56:50.530Z,6.40
2023-03-27T04:59:52.587Z,6.40
2023-03-27T05:03:14.963Z,6.40
2023-03-27T05:06:31.833Z,6.40
2023-03-27T05:09:34.493Z,6.50
2023-03-27T05:12:36.719Z,6.60
2023-03-27T05:15:38.804Z,6.60
2023-03-27T05:18:44.237Z,6.50
2023-03-27T05:21:47.582Z,6.70
2023-03-27T05:24:49.550Z,6.60
2023-03-27T05:27:52.840Z,6.50
2023-03-27T05:30:55.827Z,6.60
2023-03-27T05:34:00.302Z,6.50
2023-03-27T05:37:05.961Z,6.60
2023-03-27T05:40:17.965Z,6.50
2023-03-27T05:43:19.995Z,6.60
2023-03-27T05:46:22.538Z,6.60
2023-03-27T05:49:34.239Z,6.50
2023-03-27T05:52:44.438Z,6.50
2023-03-27T05:55:46.493Z,6.40
2023-03-27T05:58:48.511Z,6.60
2023-03-27T06:01:51.038Z,6.70
2023-03-27T06:04:59.516Z,6.80
2023-03-27T06:11:21.802Z,6.70
2023-03-27T06:14:23.994Z,6.70
2023-03-27T06:17:57.608Z,6.80
2023-03-27T06:21:01.270Z,6.90
2023-03-27T06:24:03.557Z,6.90
2023-03-27T06:27:05.555Z,7.00
2023-03-27T06:30:11.940Z,7.20
2023-03-27T06:33:17.830Z,7.40
2023-03-27T06:36:20.688Z,8.00
2023-03-27T06:39:25.792Z,8.50
2023-03-27T06:42:28.004Z,9.20
2023-03-27T06:45:38.488Z,10.30
2023-03-27T06:48:59.459Z,9.80
2023-03-27T06:52:01.863Z,9.30
2023-03-27T06:55:05.119Z,9.50
2023-03-27T06:58:07.529Z,9.90
2023-03-27T07:01:09.454Z,10.20
2023-03-27T07:04:33.171Z,9.80
2023-03-27T07:07:41.430Z,9.40
2023-03-27T07:10:45.758Z,9.30
2023-03-27T07:13:49.189Z,9.40
2023-03-27T07:16:58.242Z,9.80
2023-03-27T07:20:05.211Z,10.30
2023-03-27T07:23:08.344Z,11.40
2023-03-27T07:26:27.640Z,11.50
2023-03-27T07:29:37.413Z,11.50
2023-03-27T07:32:41.444Z,12.70
2023-03-27T07:35:45.186Z,13.70
2023-03-27T07:39:13.845Z,13.90
2023-03-27T07:42:15.954Z,14.80
2023-03-27T07:45:28.984Z,15.00
2023-03-27T07:48:32.633Z,15.60
2023-03-27T07:51:34.912Z,15.40
2023-03-27T07:54:37.157Z,16.10
2023-03-27T07:57:58.018Z,16.10
2023-03-27T08:01:04.630Z,16.20
2023-03-27T08:04:07.405Z,16.50
2023-03-27T08:07:11.826Z,15.90
2023-03-27T08:10:16.940Z,16.70
2023-03-27T08:13:33.716Z,16.90
2023-03-27T08:16:40.259Z,17.00
2023-03-27T08:19:43.662Z,16.90
2023-03-27T08:22:46.551Z,16.90
2023-03-27T08:26:07.757Z,17.00
2023-03-27T08:29:17.575Z,16.60
2023-03-27T08:32:23.266Z,15.40
2023-03-27T08:35:28.391Z,15.00
2023-03-27T08:38:30.465Z,14.90
2023-03-27T08:41:53.118Z,15.20
2023-03-27T08:45:16.910Z,13.90
2023-03-27T08:48:36.015Z,14.10
2023-03-27T08:51:45.253Z,14.60
2023-03-27T08:55:00.216Z,15.50
2023-03-27T08:58:22.069Z,15.70
2023-03-27T09:01:44.833Z,15.90
2023-03-27T09:04:51.291Z,15.80
2023-03-27T09:08:02.958Z,15.40
2023-03-27T09:11:27.225Z,15.40
2023-03-27T09:14:40.115Z,15.90
2023-03-27T09:17:43.760Z,15.80
2023-03-27T09:20:53.495Z,14.30
2023-03-27T09:23:59.309Z,14.10
2023-03-27T09:27:34.132Z,13.20
2023-03-27T09:31:21.685Z,14.70
2023-03-27T09:34:27.231Z,15.00
2023-03-27T09:37:29.200Z,15.50
2023-03-27T09:40:44.640Z,15.50
2023-03-27T09:44:09.652Z,15.60
2023-03-27T09:47:25.031Z,15.80
2023-03-27T09:50:34.042Z,16.10
2023-03-27T09:53:58.469Z,16.20
2023-03-27T09:57:11.973Z,15.60
2023-03-27T10:00:32.897Z,14.80
2023-03-27T10:03:42.621Z,13.20
2023-03-27T10:06:48.493Z,13.10
2023-03-27T10:10:15.672Z,12.50
2023-03-27T10:13:53.690Z,12.10
2023-03-27T10:16:58.865Z,11.70
2023-03-27T10:20:05.997Z,11.90
2023-03-27T10:23:24.677Z,14.20
2023-03-27T10:26:28.554Z,15.00
2023-03-27T10:29:38.323Z,15.40
2023-03-27T10:32:47.826Z,16.50
2023-03-27T10:36:11.152Z,16.00
2023-03-27T10:39:14.821Z,15.90
2023-03-27T10:42:35.706Z,15.70
2023-03-27T10:45:50.812Z,17.10
2023-03-27T10:49:10.843Z,16.50
2023-03-27T11:03:35.361Z,14.40
2023-03-27T11:06:42.158Z,14.10
2023-03-27T11:09:54.031Z,14.30
2023-03-27T11:13:06.701Z,14.50
2023-03-27T11:16:20.972Z,14.20
2023-03-27T11:19:48.788Z,15.20
2023-03-27T11:24:01.156Z,14.80
2023-03-27T11:27:14.725Z,14.20
2023-03-27T11:30:36.772Z,13.90
2023-03-27T11:34:01.177Z,14.70
2023-03-27T11:37:10.457Z,14.10
2023-03-27T11:40:29.243Z,14.00
2023-03-27T11:43:51.485Z,13.90
2023-03-27T11:47:50.039Z,13.30
2023-03-27T11:51:02.566Z,13.40
2023-03-27T11:54:20.684Z,13.90
2023-03-27T11:58:08.611Z,13.50
2023-03-27T12:01:23.531Z,13.50
2023-03-27T12:04:57.785Z,13.50
2023-03-27T12:08:30.117Z,12.90
2023-03-27T12:11:44.480Z,12.90
2023-03-27T12:15:11.655Z,13.20
2023-03-27T12:22:34.412Z,13.00
2023-03-27T12:26:00.683Z,12.70
2023-03-27T12:29:58.866Z,12.50
2023-03-27T12:33:39.560Z,12.00
2023-03-27T12:36:46.025Z,11.60
2023-03-27T12:39:58.335Z,11.10
2023-03-27T12:43:24.968Z,10.50
2023-03-27T12:46:41.077Z,10.20
2023-03-27T12:49:48.444Z,10.10
2023-03-27T12:53:25.444Z,10.50
2023-03-27T12:56:36.093Z,10.90
2023-03-27T13:00:11.199Z,10.30
2023-03-27T13:03:56.693Z,10.10
2023-03-27T13:07:24.475Z,10.80
2023-03-27T13:11:00.392Z,10.90
2023-03-27T13:14:32.869Z,11.40
2023-03-27T13:17:54.969Z,12.10
2023-03-27T13:21:15.710Z,11.70
2023-03-27T13:24:41.766Z,11.70
2023-03-27T13:28:04.087Z,11.60
2023-03-27T13:31:11.700Z,12.00
2023-03-27T13:34:39.918Z,12.50
2023-03-27T13:37:50.023Z,12.60
2023-03-27T13:41:17.222Z,12.50
2023-03-27T13:44:37.001Z,12.70
2023-03-27T13:47:57.418Z,12.80
2023-03-27T13:51:21.043Z,13.20
2023-03-27T13:55:12.343Z,13.20
2023-03-27T13:58:45.916Z,13.40
2023-03-27T14:05:20.533Z,13.20
2023-03-27T14:08:49.604Z,13.20
2023-03-27T14:12:20.949Z,12.50
2023-03-27T14:16:12.755Z,12.40
2023-03-27T14:19:49.296Z,11.80
2023-03-27T14:23:07.811Z,10.90
2023-03-27T14:26:30.430Z,10.20
2023-03-27T14:29:33.834Z,10.20
2023-03-27T14:32:36.162Z,9.90
2023-03-27T14:35:42.884Z,10.00
2023-03-27T14:38:49.800Z,9.80
2023-03-27T14:42:20.367Z,9.90
2023-03-27T14:45:27.672Z,10.20
2023-03-27T14:48:35.063Z,10.20
2023-03-27T14:51:38.892Z,10.40
2023-03-27T14:54:54.746Z,10.40
2023-03-27T14:58:04.087Z,10.70
2023-03-27T15:01:06.256Z,10.90
2023-03-27T15:04:09.665Z,10.80
2023-03-27T15:07:17.721Z,10.80
2023-03-27T15:10:34.939Z,10.90
2023-03-27T15:14:06.842Z,11.00
2023-03-27T15:17:16.671Z,10.90
2023-03-27T15:20:21.469Z,10.60
2023-03-27T15:23:27.932Z,10.60
2023-03-27T15:26:32.940Z,10.40
2023-03-27T15:29:46.014Z,10.20
2023-03-27T15:32:51.208Z,10.20
2023-03-27T15:35:57.188Z,10.20
2023-03-27T15:39:01.085Z,10.40
2023-03-27T15:42:06.448Z,10.40
2023-03-27T15:45:10.830Z,10.40
2023-03-27T15:48:34.380Z,10.50
2023-03-27T15:51:36.687Z,10.60
2023-03-27T15:54:54.340Z,10.80
2023-03-27T15:57:56.507Z,10.90
2023-03-27T16:01:02.028Z,10.80
2023-03-27T16:04:12.961Z,10.80
2023-03-27T16:07:23.097Z,11.00
2023-03-27T16:10:32.771Z,11.10
2023-03-27T16:13:41.519Z,11.10
2023-03-27T16:16:43.686Z,11.00
2023-03-27T16:20:05.913Z,11.00
2023-03-27T16:23:07.968Z,11.00
2023-03-27T16:26:15.416Z,11.00
2023-03-27T16:29:18.795Z,10.80
2023-03-27T16:32:22.558Z,10.80
2023-03-27T16:35:24.925Z,10.80
2023-03-27T16:38:27.284Z,10.90
2023-03-27T16:41:29.713Z,11.00
2023-03-27T16:44:32.416Z,11.00
2023-03-27T16:47:34.864Z,11.00
2023-03-27T16:50:36.911Z,10.90
2023-03-27T16:53:39.142Z,10.90
2023-03-27T16:56:41.307Z,10.80
2023-03-27T16:59:43.577Z,10.80
2023-03-27T17:02:45.837Z,10.70
2023-03-27T17:05:48.028Z,10.70
2023-03-27T17:08:50.396Z,10.70
2023-03-27T17:11:52.637Z,10.50
2023-03-27T17:14:56.285Z,10.20
2023-03-27T17:17:58.506Z,10.20
2023-03-27T17:21:00.930Z,10.10
2023-03-27T17:24:03.117Z,10.20
2023-03-27T17:27:06.359Z,10.10
2023-03-27T17:30:09.258Z,10.10
2023-03-27T17:33:12.087Z,10.00
2023-03-27T17:36:23.890Z,9.90
2023-03-27T17:39:32.100Z,9.90
2023-03-27T17:42:34.338Z,9.90
2023-03-27T17:45:43.850Z,9.90
2023-03-27T17:48:46.106Z,9.80
2023-03-27T17:51:48.272Z,9.70
2023-03-27T17:54:50.731Z,9.80
2023-03-27T17:58:05.955Z,9.80
2023-03-27T18:01:21.805Z,9.80
2023-03-27T18:04:24.583Z,9.70
2023-03-27T18:07:26.825Z,9.70
2023-03-27T18:10:29.122Z,9.80
2023-03-27T18:13:31.178Z,9.70
2023-03-27T18:16:33.467Z,9.70
2023-03-27T18:19:36.294Z,9.70
2023-03-27T18:22:39.257Z,9.70
2023-03-27T18:25:41.409Z,9.60
2023-03-27T18:28:43.883Z,9.60
2023-03-27T18:31:46.140Z,9.40
2023-03-27T18:34:48.159Z,9.40
2023-03-27T18:37:50.566Z,9.40
2023-03-27T18:40:58.975Z,9.40
2023-03-27T18:44:01.529Z,9.40
2023-03-27T18:47:03.654Z,9.40
2023-03-27T18:50:06.844Z,9.20
2023-03-27T18:53:08.885Z,9.20
2023-03-27T18:56:11.192Z,9.10
2023-03-27T18:59:13.264Z,9.10
2023-03-27T19:02:16.586Z,8.70
2023-03-27T19:05:18.680Z,8.50
2023-03-27T19:08:22.151Z,8.40
2023-03-27T19:11:24.350Z,8.40
2023-03-27T19:14:50.125Z,8.40
2023-03-27T19:18:11.289Z,8.30
2023-03-27T19:21:36.321Z,8.30
2023-03-27T19:24:41.960Z,8.40
2023-03-27T19:27:44.391Z,8.40
2023-03-27T19:30:46.693Z,8.40
2023-03-27T19:33:49.766Z,8.40
2023-03-27T19:36:52.290Z,8.30
2023-03-27T19:39:54.816Z,8.40
2023-03-27T19:42:56.988Z,8.50
2023-03-27T19:46:15.608Z,8.40
2023-03-27T19:49:18.268Z,8.40
2023-03-27T19:52:35.321Z,8.40
2023-03-27T19:55:37.645Z,8.40
2023-03-27T19:58:40.026Z,8.40
2023-03-27T20:01:42.167Z,8.30
2023-03-27T20:04:44.300Z,8.30
2023-03-27T20:07:46.532Z,8.30
2023-03-27T20:10:50.377Z,8.20
2023-03-27T20:13:56.704Z,8.30
2023-03-27T20:16:59.376Z,8.20
2023-03-27T20:20:01.441Z,8.10
2023-03-27T20:23:03.496Z,8.10
2023-03-27T20:26:05.664Z,8.00
2023-03-27T20:29:14.559Z,7.90
2023-03-27T20:32:16.740Z,7.90
2023-03-27T20:35:24.232Z,7.90
2023-03-27T20:38:27.218Z,7.80
2023-03-27T20:41:29.851Z,7.70
2023-03-27T20:44:31.975Z,7.70
2023-03-27T20:47:34.204Z,7.70
2023-03-27T20:50:37.318Z,7.40
2023-03-27T20:53:39.422Z,7.50
2023-03-27T20:56:41.902Z,7.50
2023-03-27T20:59:46.234Z,7.40
2023-03-27T21:02:51.070Z,7.30
2023-03-27T21:05:53.662Z,7.30
2023-03-27T21:08:55.703Z,7.40
2023-03-27T21:11:57.738Z,7.40
2023-03-27T21:15:00.144Z,7.30
2023-03-27T21:18:02.359Z,7.30
2023-03-27T21:21:05.242Z,7.20
2023-03-27T21:24:07.557Z,7.30
2023-03-27T21:27:10.982Z,7.20
2023-03-27T21:30:16.357Z,7.30
2023-03-27T21:33:18.653Z,6.80
2023-03-27T21:36:23.425Z,6.60
2023-03-27T21:39:25.636Z,6.60
2023-03-27T21:42:27.877Z,6.60
2023-03-27T21:45:31.493Z,6.70
2023-03-27T21:48:33.495Z,6.60
2023-03-27T21:51:35.593Z,6.50
2023-03-27T21:54:37.644Z,6.60
2023-03-27T21:57:39.942Z,6.50
2023-03-27T22:00:45.546Z,6.40
2023-03-27T22:03:47.602Z,6.30
2023-03-27T22:06:49.858Z,6.00
2023-03-27T22:09:51.887Z,5.90
2023-03-27T22:12:53.936Z,5.80
2023-03-27T22:15:56.005Z,5.70
2023-03-27T22:19:02.453Z,5.70
2023-03-27T22:22:04.512Z,6.10
2023-03-27T22:25:06.995Z,6.20
2023-03-27T22:28:09.098Z,6.10
2023-03-27T22:31:11.406Z,6.00
2023-03-27T22:34:13.603Z,6.20
2023-03-27T22:37:16.566Z,6.40
2023-03-27T22:40:18.695Z,6.60
2023-03-27T22:43:23.256Z,6.50
2023-03-27T22:46:27.574Z,6.40
2023-03-27T22:49:29.684Z,6.40
2023-03-27T22:52:31.898Z,6.40
2023-03-27T22:55:33.929Z,6.40
2023-03-27T22:58:36.122Z,6.50
2023-03-27T23:01:38.219Z,6.60
2023-03-27T23:04:40.469Z,6.70
2023-03-27T23:07:42.573Z,6.70
2023-03-27T23:10:46.298Z,6.60
2023-03-27T23:13:49.526Z,6.70
2023-03-27T23:16:51.584Z,6.70
2023-03-27T23:19:53.656Z,6.70
2023-03-27T23:22:55.862Z,6.60
2023-03-27T23:25:58.978Z,6.50
2023-03-27T23:29:01.276Z,6.50
2023-03-27T23:32:05.174Z,6.40
2023-03-27T23:35:11.783Z,6.40
2023-03-27T23:38:13.925Z,6.30
2023-03-27T23:41:16.799Z,6.30
2023-03-27T23:44:18.887Z,6.20
2023-03-27T23:47:21.117Z,6.30
2023-03-27T23:50:23.168Z,6.30
2023-03-27T23:53:27.454Z,6.20
2023-03-27T23:56:29.651Z,6.30
2023-03-27T23:59:37.964Z,6.30
